Time;durP1;ratioP1;P1;durP2;ratioP2;P2;SDS_P1;SDS_P2;PMS_P1;PMS_P2;Temp;Humidity;BMP_temperature;BMP_pressure;BME280_temperature;BME280_humidity;BME280_pressure;Samples;Min_cycle;Max_cycle;Signal;HPM_P1;HPM_P2
2022/09/29 00:01:37;;;;;;;;;5.33;5.33;;;;;;;;5088282;27;47151;-71
2022/09/29 00:04:02;;;;;;;;;6.67;5.67;;;;;;;;5080055;27;45620;-71
2022/09/29 00:06:27;;;;;;;;;8.67;6.67;;;;;;;;5084394;27;45923;-73
2022/09/29 00:08:52;;;;;;;;;7.33;5.67;;;;;;;;5080331;27;45711;-72
2022/09/29 00:11:18;;;;;;;;;9.67;5.67;;;;;;;;5071525;28;45456;-71
2022/09/29 00:13:44;;;;;;;;;6.67;6.67;;;;;;;;5093664;27;45668;-71
2022/09/29 00:16:09;;;;;;;;;6.00;6.00;;;;;;;;5088341;27;45408;-70
2022/09/29 00:18:34;;;;;;;;;4.33;3.67;;;;;;;;5063227;27;46766;-71
2022/09/29 00:21:01;;;;;;;;;7.67;5.00;;;;;;;;5090803;27;46325;-71
2022/09/29 00:23:27;;;;;;;;;6.00;5.33;;;;;;;;5094504;27;45353;-70
2022/09/29 00:26:19;;;;;;;;;4.33;4.00;;;;;;;;5081416;27;45797;-71
2022/09/29 00:28:48;;;;;;;;;6.33;5.00;;;;;;;;5086264;27;45825;-71
2022/09/29 00:31:14;;;;;;;;;7.67;6.00;;;;;;;;5074721;27;45512;-71
2022/09/29 00:33:40;;;;;;;;;4.67;4.67;;;;;;;;5075071;27;45842;-72
2022/09/29 00:36:08;;;;;;;;;5.00;4.00;;;;;;;;5093902;27;45379;-72
2022/09/29 00:38:34;;;;;;;;;4.00;4.00;;;;;;;;5088078;27;45394;-72
2022/09/29 00:41:00;;;;;;;;;3.67;3.67;;;;;;;;5094164;27;45697;-72
2022/09/29 00:43:44;;;;;;;;;4.33;4.00;;;;;;;;5094340;27;45823;-72
2022/09/29 00:46:09;;;;;;;;;6.00;6.00;;;;;;;;5082760;27;45791;-71
2022/09/29 00:48:35;;;;;;;;;7.33;5.67;;;;;;;;5077590;27;46579;-72
2022/09/29 00:51:01;;;;;;;;;4.67;4.67;;;;;;;;5078262;27;46652;-71
2022/09/29 00:53:26;;;;;;;;;6.67;5.67;;;;;;;;5092942;27;45739;-72
2022/09/29 00:55:58;;;;;;;;;6.67;6.67;;;;;;;;5081735;27;45780;-71
2022/09/29 00:58:31;;;;;;;;;10.00;7.33;;;;;;;;5094458;27;45829;-72
2022/09/29 01:00:56;;;;;;;;;8.67;7.67;;;;;;;;5080810;27;45734;-72
2022/09/29 01:03:24;;;;;;;;;8.00;5.00;;;;;;;;5093948;27;45404;-70
2022/09/29 01:05:53;;;;;;;;;5.00;5.00;;;;;;;;5088915;27;45773;-71
2022/09/29 01:08:23;;;;;;;;;5.33;4.67;;;;;;;;5092636;27;45525;-71
2022/09/29 01:10:50;;;;;;;;;5.67;3.67;;;;;;;;5091083;27;45629;-72
2022/09/29 01:13:15;;;;;;;;;4.33;3.33;;;;;;;;5075306;27;45400;-71
2022/09/29 01:15:41;;;;;;;;;3.00;3.00;;;;;;;;5092355;27;45818;-71
2022/09/29 01:18:06;;;;;;;;;4.00;3.00;;;;;;;;5063149;27;46671;-72
2022/09/29 01:20:33;;;;;;;;;3.67;3.00;;;;;;;;5088382;27;46159;-72
2022/09/29 01:23:08;;;;;;;;;3.00;3.00;;;;;;;;5091758;27;45732;-71
2022/09/29 01:25:52;;;;;;;;;5.33;3.00;;;;;;;;5094019;27;45794;-71
2022/09/29 01:28:20;;;;;;;;;2.33;1.67;;;;;;;;5087473;27;45347;-72
2022/09/29 01:30:48;;;;;;;;;2.00;2.00;;;;;;;;5093700;27;45716;-72
2022/09/29 01:33:27;;;;;;;;;4.33;4.33;;;;;;;;5089929;27;46025;-72
2022/09/29 01:35:53;;;;;;;;;3.00;3.00;;;;;;;;5071275;27;45458;-71
2022/09/29 01:38:26;;;;;;;;;4.00;3.00;;;;;;;;5090108;27;45364;-71
2022/09/29 01:40:56;;;;;;;;;6.00;4.33;;;;;;;;5085103;27;46931;-72
2022/09/29 01:43:27;;;;;;;;;3.00;2.00;;;;;;;;5093948;27;45693;-72
2022/09/29 01:45:58;;;;;;;;;3.67;3.67;;;;;;;;5094201;27;45499;-71
2022/09/29 01:48:26;;;;;;;;;4.00;3.00;;;;;;;;5075241;27;45382;-70
2022/09/29 01:50:54;;;;;;;;;1.67;1.67;;;;;;;;5092448;27;45751;-70
2022/09/29 01:53:23;;;;;;;;;3.33;3.00;;;;;;;;5074537;27;45773;-71
2022/09/29 01:55:51;;;;;;;;;1.33;1.33;;;;;;;;5053577;27;45427;-71
2022/09/29 01:58:21;;;;;;;;;2.67;2.67;;;;;;;;5053229;28;45832;-73
2022/09/29 02:00:49;;;;;;;;;3.67;3.33;;;;;;;;5073286;28;46562;-71
2022/09/29 02:03:23;;;;;;;;;3.33;2.67;;;;;;;;5073569;27;45400;-72
2022/09/29 02:05:54;;;;;;;;;4.00;4.00;;;;;;;;5071902;27;45358;-71
2022/09/29 02:08:24;;;;;;;;;4.00;4.00;;;;;;;;5066526;28;45410;-71
2022/09/29 02:10:57;;;;;;;;;4.00;3.00;;;;;;;;5066589;28;45544;-72
2022/09/29 02:13:23;;;;;;;;;4.33;3.33;;;;;;;;5066404;27;45386;-72
2022/09/29 02:15:50;;;;;;;;;5.00;3.00;;;;;;;;5066806;27;45673;-72
2022/09/29 02:18:18;;;;;;;;;2.00;2.00;;;;;;;;5058301;28;45331;-72
2022/09/29 02:20:45;;;;;;;;;5.67;2.00;;;;;;;;5057226;27;46238;-71
2022/09/29 02:23:10;;;;;;;;;3.67;3.00;;;;;;;;5063221;27;45368;-71
2022/09/29 02:25:36;;;;;;;;;7.00;4.67;;;;;;;;5071258;28;45366;-71
2022/09/29 02:28:02;;;;;;;;;3.00;2.67;;;;;;;;5072091;27;45421;-72
2022/09/29 02:30:27;;;;;;;;;4.00;4.00;;;;;;;;5063811;28;45904;-71
2022/09/29 02:32:52;;;;;;;;;2.00;2.00;;;;;;;;5060343;28;45639;-72
2022/09/29 02:35:18;;;;;;;;;2.67;2.67;;;;;;;;5064462;28;45410;-71
2022/09/29 02:37:46;;;;;;;;;3.67;3.33;;;;;;;;5071419;27;45977;-70
2022/09/29 02:40:30;;;;;;;;;7.67;4.00;;;;;;;;5071067;28;45717;-70
2022/09/29 02:43:34;;;;;;;;;4.00;4.00;;;;;;;;5069375;27;45840;-72
2022/09/29 02:45:59;;;;;;;;;4.00;2.67;;;;;;;;4989209;28;45348;-71
2022/09/29 02:48:27;;;;;;;;;4.33;3.00;;;;;;;;4983182;28;45541;-71
2022/09/29 02:51:07;;;;;;;;;3.33;3.33;;;;;;;;5033931;28;45756;-71
2022/09/29 02:53:43;;;;;;;;;3.67;3.33;;;;;;;;5061765;28;45442;-72
2022/09/29 02:56:15;;;;;;;;;3.00;3.00;;;;;;;;5069164;28;45664;-72
2022/09/29 02:58:49;;;;;;;;;3.67;3.67;;;;;;;;5090133;27;45465;-72
2022/09/29 03:01:15;;;;;;;;;3.33;2.67;;;;;;;;5090682;27;45408;-73
2022/09/29 03:03:40;;;;;;;;;5.00;3.67;;;;;;;;5062894;27;45695;-72
2022/09/29 03:06:06;;;;;;;;;3.33;2.33;;;;;;;;5092040;27;45532;-71
2022/09/29 03:08:32;;;;;;;;;3.33;2.67;;;;;;;;5088857;27;45620;-71
2022/09/29 03:10:58;;;;;;;;;4.67;2.00;;;;;;;;5091368;27;45640;-70
2022/09/29 03:13:23;;;;;;;;;5.33;3.00;;;;;;;;5082956;27;45375;-72
2022/09/29 03:15:48;;;;;;;;;4.00;2.33;;;;;;;;5092373;27;45921;-72
2022/09/29 03:18:14;;;;;;;;;5.33;2.67;;;;;;;;5085106;27;45654;-72
2022/09/29 03:20:39;;;;;;;;;4.00;3.00;;;;;;;;5085375;27;45816;-72
2022/09/29 03:23:04;;;;;;;;;1.67;1.67;;;;;;;;5092088;27;45691;-71
2022/09/29 03:25:30;;;;;;;;;3.67;3.67;;;;;;;;5084909;27;45379;-71
2022/09/29 03:27:55;;;;;;;;;3.00;3.00;;;;;;;;5088280;27;45737;-71
2022/09/29 03:30:22;;;;;;;;;4.67;3.67;;;;;;;;5083326;27;45626;-71
2022/09/29 03:32:47;;;;;;;;;3.00;3.00;;;;;;;;5094711;27;45372;-72
2022/09/29 03:35:12;;;;;;;;;3.33;3.33;;;;;;;;5076686;27;45703;-72
2022/09/29 03:37:38;;;;;;;;;2.67;2.67;;;;;;;;5091448;27;45462;-72
2022/09/29 03:40:04;;;;;;;;;5.00;3.33;;;;;;;;5087556;27;45616;-72
2022/09/29 03:42:29;;;;;;;;;2.00;2.00;;;;;;;;5089472;27;45806;-72
2022/09/29 03:44:54;;;;;;;;;3.67;2.67;;;;;;;;5092041;27;45720;-70
2022/09/29 03:47:20;;;;;;;;;3.33;2.67;;;;;;;;5084650;27;45591;-72
2022/09/29 03:49:45;;;;;;;;;4.00;3.33;;;;;;;;5095057;27;46198;-72
2022/09/29 03:52:10;;;;;;;;;3.00;3.00;;;;;;;;5095407;27;45639;-70
2022/09/29 03:54:36;;;;;;;;;2.33;2.33;;;;;;;;5089825;27;45746;-70
2022/09/29 03:57:01;;;;;;;;;3.00;3.00;;;;;;;;5077957;27;45723;-70
2022/09/29 03:59:26;;;;;;;;;3.00;3.00;;;;;;;;5056520;28;46161;-72
2022/09/29 04:01:52;;;;;;;;;4.00;3.33;;;;;;;;5074821;28;45701;-72
2022/09/29 04:04:17;;;;;;;;;2.67;2.67;;;;;;;;5073754;27;45621;-73
2022/09/29 04:06:42;;;;;;;;;5.00;5.00;;;;;;;;5074037;28;45682;-75
2022/09/29 04:09:07;;;;;;;;;6.00;5.00;;;;;;;;5073916;28;46901;-72
2022/09/29 04:11:33;;;;;;;;;3.33;3.33;;;;;;;;5054825;28;45882;-72
2022/09/29 04:14:01;;;;;;;;;3.00;3.00;;;;;;;;5071842;28;45776;-71
2022/09/29 04:16:26;;;;;;;;;3.00;3.00;;;;;;;;5072212;28;45456;-70
2022/09/29 04:18:52;;;;;;;;;4.00;4.00;;;;;;;;5073601;28;46326;-72
2022/09/29 04:21:17;;;;;;;;;5.00;3.67;;;;;;;;5072954;28;45877;-72
2022/09/29 04:23:42;;;;;;;;;3.00;3.00;;;;;;;;5072197;28;45658;-72
2022/09/29 04:26:08;;;;;;;;;4.33;3.00;;;;;;;;5052682;28;45538;-72
2022/09/29 04:28:34;;;;;;;;;3.67;3.67;;;;;;;;5054827;28;47167;-72
2022/09/29 04:30:59;;;;;;;;;6.33;4.00;;;;;;;;5073156;28;45772;-73
2022/09/29 04:33:25;;;;;;;;;4.67;4.67;;;;;;;;5071942;28;45452;-72
2022/09/29 04:35:50;;;;;;;;;6.67;4.00;;;;;;;;5072103;28;46076;-72
2022/09/29 04:38:15;;;;;;;;;5.67;4.00;;;;;;;;5059657;28;47136;-73
2022/09/29 04:40:40;;;;;;;;;6.00;4.00;;;;;;;;5055414;28;45732;-71
2022/09/29 04:43:06;;;;;;;;;1.67;1.67;;;;;;;;5069918;28;45770;-71
2022/09/29 04:45:31;;;;;;;;;3.67;3.67;;;;;;;;5053681;28;46454;-69
2022/09/29 04:47:56;;;;;;;;;3.00;2.67;;;;;;;;5054851;28;47553;-72
2022/09/29 04:50:22;;;;;;;;;3.00;3.00;;;;;;;;5073903;28;45271;-72
2022/09/29 04:52:47;;;;;;;;;2.00;1.67;;;;;;;;5072095;28;45361;-74
2022/09/29 04:55:13;;;;;;;;;3.00;3.00;;;;;;;;5070296;28;45842;-72
2022/09/29 04:57:39;;;;;;;;;2.67;2.33;;;;;;;;5088137;27;46059;-72
2022/09/29 05:00:06;;;;;;;;;3.67;2.33;;;;;;;;5090201;27;45728;-71
2022/09/29 05:02:31;;;;;;;;;6.00;4.00;;;;;;;;5088992;27;45988;-73
2022/09/29 05:04:57;;;;;;;;;6.67;3.67;;;;;;;;5090353;27;45769;-73
2022/09/29 05:07:22;;;;;;;;;3.00;3.00;;;;;;;;5091395;27;46156;-73
2022/09/29 05:09:47;;;;;;;;;3.67;3.67;;;;;;;;5086401;27;45592;-72
2022/09/29 05:12:13;;;;;;;;;4.67;3.67;;;;;;;;5087679;27;45416;-71
2022/09/29 05:14:38;;;;;;;;;6.33;3.67;;;;;;;;5084091;27;45703;-72
2022/09/29 05:17:04;;;;;;;;;1.33;1.33;;;;;;;;5090238;27;47015;-73
2022/09/29 05:19:30;;;;;;;;;3.33;3.33;;;;;;;;5086862;27;45722;-73
2022/09/29 05:21:56;;;;;;;;;3.67;3.67;;;;;;;;5096407;27;45732;-72
2022/09/29 05:24:21;;;;;;;;;5.33;3.33;;;;;;;;5085208;27;45745;-76
2022/09/29 05:26:46;;;;;;;;;3.00;2.67;;;;;;;;5083763;27;45331;-74
2022/09/29 05:29:12;;;;;;;;;5.67;4.33;;;;;;;;5084826;27;45448;-71
2022/09/29 05:31:37;;;;;;;;;4.67;3.67;;;;;;;;5090740;27;45862;-72
2022/09/29 05:34:02;;;;;;;;;4.33;4.33;;;;;;;;5071332;27;47332;-74
2022/09/29 05:36:28;;;;;;;;;5.33;2.67;;;;;;;;5086224;27;45510;-73
2022/09/29 05:38:54;;;;;;;;;4.00;4.00;;;;;;;;5068378;27;45501;-72
2022/09/29 05:41:22;;;;;;;;;3.67;2.67;;;;;;;;5083580;27;45834;-70
2022/09/29 05:43:48;;;;;;;;;6.33;3.67;;;;;;;;5087479;27;45810;-70
2022/09/29 05:46:15;;;;;;;;;4.33;2.00;;;;;;;;5090092;27;46293;-69
2022/09/29 05:48:42;;;;;;;;;3.33;3.33;;;;;;;;5089203;27;45860;-70
2022/09/29 05:51:12;;;;;;;;;5.33;3.67;;;;;;;;5085130;27;45881;-70
2022/09/29 05:53:37;;;;;;;;;5.67;3.00;;;;;;;;5058116;27;47474;-69
2022/09/29 05:56:03;;;;;;;;;2.33;1.67;;;;;;;;5077838;27;46303;-70
2022/09/29 05:58:29;;;;;;;;;2.67;2.67;;;;;;;;5053254;28;45580;-70
2022/09/29 06:00:54;;;;;;;;;4.33;3.00;;;;;;;;5065390;27;45445;-70
2022/09/29 06:03:19;;;;;;;;;5.67;3.67;;;;;;;;5068024;27;45752;-68
2022/09/29 06:05:44;;;;;;;;;3.00;3.00;;;;;;;;5065906;28;45703;-71
2022/09/29 06:08:11;;;;;;;;;3.67;2.67;;;;;;;;5066951;27;45373;-70
2022/09/29 06:10:36;;;;;;;;;3.67;3.67;;;;;;;;5065222;27;45875;-71
2022/09/29 06:13:02;;;;;;;;;4.00;4.00;;;;;;;;5063612;27;45690;-71
2022/09/29 06:15:27;;;;;;;;;4.67;4.67;;;;;;;;5067008;27;46694;-73
2022/09/29 06:17:56;;;;;;;;;4.33;3.67;;;;;;;;5051870;28;45432;-72
2022/09/29 06:20:22;;;;;;;;;4.00;4.00;;;;;;;;5071130;27;45476;-71
2022/09/29 06:22:47;;;;;;;;;7.67;3.67;;;;;;;;5052602;28;45666;-72
2022/09/29 06:25:13;;;;;;;;;5.67;5.67;;;;;;;;5058256;27;45940;-73
2022/09/29 06:27:38;;;;;;;;;4.67;4.67;;;;;;;;5050612;28;45786;-73
2022/09/29 06:30:03;;;;;;;;;3.67;3.67;;;;;;;;5061433;28;45651;-71
2022/09/29 06:32:29;;;;;;;;;4.33;4.33;;;;;;;;5065165;27;45407;-70
2022/09/29 06:37:42;;;;;;;;;4.00;3.67;;;;;;;;5059946;28;45886;-73
2022/09/29 06:40:09;;;;;;;;;4.00;4.00;;;;;;;;5057477;28;45900;-70
2022/09/29 06:42:34;;;;;;;;;5.33;5.00;;;;;;;;5068450;28;45478;-71
2022/09/29 06:45:00;;;;;;;;;5.33;5.33;;;;;;;;5070357;28;46128;-73
2022/09/29 06:47:25;;;;;;;;;5.00;5.00;;;;;;;;5069606;28;45904;-72
2022/09/29 06:49:50;;;;;;;;;7.67;7.33;;;;;;;;5069204;28;45494;-72
2022/09/29 06:52:16;;;;;;;;;8.00;7.00;;;;;;;;5069206;27;45524;-70
2022/09/29 06:54:41;;;;;;;;;7.00;6.67;;;;;;;;5072741;27;45658;-72
2022/09/29 06:57:06;;;;;;;;;2.67;2.67;;;;;;;;5085860;27;45333;-70
2022/09/29 06:59:31;;;;;;;;;6.33;5.00;;;;;;;;5090641;27;45341;-71
2022/09/29 07:01:57;;;;;;;;;5.00;5.00;;;;;;;;5056330;27;45907;-72
2022/09/29 07:04:24;;;;;;;;;5.67;5.67;;;;;;;;5089999;27;46001;-70
2022/09/29 07:06:49;;;;;;;;;7.33;6.33;;;;;;;;5073898;27;45419;-70
2022/09/29 07:09:15;;;;;;;;;4.00;4.00;;;;;;;;5075932;27;45527;-71
2022/09/29 07:11:41;;;;;;;;;6.00;4.67;;;;;;;;5093026;27;45879;-71
2022/09/29 07:14:06;;;;;;;;;5.00;4.00;;;;;;;;5093658;27;46400;-72
2022/09/29 07:16:31;;;;;;;;;9.33;7.33;;;;;;;;5083079;27;45377;-72
2022/09/29 07:18:57;;;;;;;;;7.00;7.00;;;;;;;;5084564;27;45611;-73
2022/09/29 07:21:22;;;;;;;;;5.33;5.00;;;;;;;;5093340;27;45621;-73
2022/09/29 07:23:47;;;;;;;;;7.33;5.33;;;;;;;;5076701;27;46334;-69
2022/09/29 07:26:15;;;;;;;;;5.33;5.33;;;;;;;;5087742;27;45717;-70
2022/09/29 07:28:40;;;;;;;;;4.33;4.00;;;;;;;;5084056;27;45984;-70
2022/09/29 07:31:10;;;;;;;;;5.67;5.67;;;;;;;;5090974;27;45672;-69
2022/09/29 07:33:35;;;;;;;;;16.00;14.67;;;;;;;;5102388;27;45451;-68
2022/09/29 07:36:00;;;;;;;;;6.67;6.67;;;;;;;;5089417;27;45752;-69
2022/09/29 07:38:26;;;;;;;;;15.00;14.00;;;;;;;;5083598;27;46088;-73
2022/09/29 07:40:51;;;;;;;;;17.33;13.67;;;;;;;;5086966;27;45385;-70
2022/09/29 07:43:17;;;;;;;;;6.33;6.33;;;;;;;;5089988;27;46343;-68
2022/09/29 07:48:17;;;;;;;;;8.33;4.33;;;;;;;;5097890;22;46341;-69
2022/09/29 07:50:43;;;;;;;;;12.33;11.67;;;;;;;;5089069;27;45609;-67
2022/09/29 07:53:08;;;;;;;;;9.67;9.67;;;;;;;;5086368;27;47513;-70
2022/09/29 07:55:34;;;;;;;;;8.67;7.00;;;;;;;;5097232;27;45557;-69
2022/09/29 07:58:00;;;;;;;;;8.00;8.00;;;;;;;;5088364;27;45806;-69
2022/09/29 08:00:25;;;;;;;;;9.00;5.33;;;;;;;;5090557;27;45914;-70
2022/09/29 08:02:51;;;;;;;;;10.00;7.00;;;;;;;;5090911;27;45461;-68
2022/09/29 08:05:16;;;;;;;;;6.67;6.00;;;;;;;;5087363;27;46043;-69
2022/09/29 08:07:42;;;;;;;;;9.33;8.67;;;;;;;;5084355;27;45882;-68
2022/09/29 08:10:07;;;;;;;;;11.33;8.33;;;;;;;;5091470;27;45699;-69
2022/09/29 08:12:33;;;;;;;;;18.67;10.67;;;;;;;;5080193;27;46345;-70
2022/09/29 08:14:58;;;;;;;;;11.33;9.67;;;;;;;;5088046;27;46347;-70
2022/09/29 08:17:23;;;;;;;;;9.67;8.67;;;;;;;;5090110;27;45922;-70
2022/09/29 08:19:48;;;;;;;;;9.00;7.33;;;;;;;;5089057;27;46177;-69
2022/09/29 08:22:14;;;;;;;;;10.67;7.67;;;;;;;;5080860;27;45876;-67
2022/09/29 08:24:39;;;;;;;;;11.33;8.67;;;;;;;;5074058;27;45845;-70
2022/09/29 08:27:05;;;;;;;;;8.67;7.00;;;;;;;;5097053;27;45881;-68
2022/09/29 08:29:31;;;;;;;;;8.67;8.67;;;;;;;;5081836;27;45489;-68
2022/09/29 08:31:56;;;;;;;;;9.00;9.00;;;;;;;;5077815;27;46000;-69
2022/09/29 08:34:21;;;;;;;;;11.67;10.33;;;;;;;;5073966;27;45715;-69
2022/09/29 08:36:47;;;;;;;;;5.67;5.67;;;;;;;;5088272;27;45643;-69
2022/09/29 08:39:13;;;;;;;;;7.67;7.67;;;;;;;;5077817;27;46098;-68
2022/09/29 08:41:58;;;;;;;;;12.33;8.33;;;;;;;;5083707;27;47261;-69
2022/09/29 08:44:32;;;;;;;;;9.33;8.67;;;;;;;;5096063;27;45445;-67
2022/09/29 08:47:05;;;;;;;;;11.33;9.33;;;;;;;;5065287;27;45633;-67
2022/09/29 08:49:40;;;;;;;;;12.33;11.33;;;;;;;;5087595;27;45573;-69
2022/09/29 08:52:11;;;;;;;;;14.33;11.00;;;;;;;;5087201;27;46121;-68
2022/09/29 08:54:38;;;;;;;;;11.00;11.00;;;;;;;;5098577;27;45601;-69
2022/09/29 08:57:04;;;;;;;;;10.00;8.67;;;;;;;;5092899;27;45416;-69
2022/09/29 08:59:30;;;;;;;;;8.00;7.00;;;;;;;;5108520;27;45820;-67
2022/09/29 09:02:14;;;;;;;;;6.67;6.67;;;;;;;;5071679;27;47064;-68
2022/09/29 09:04:55;;;;;;;;;5.33;5.00;;;;;;;;5091511;27;46355;-67
2022/09/29 09:07:30;;;;;;;;;9.00;9.00;;;;;;;;5080795;27;45423;-69
2022/09/29 09:10:10;;;;;;;;;7.67;7.33;;;;;;;;5092149;27;45584;-68
2022/09/29 09:12:54;;;;;;;;;9.00;6.33;;;;;;;;5091848;27;45655;-70
2022/09/29 09:15:32;;;;;;;;;10.33;7.33;;;;;;;;5055263;28;45370;-69
2022/09/29 09:18:03;;;;;;;;;8.00;5.33;;;;;;;;5089378;27;45311;-68
2022/09/29 09:20:38;;;;;;;;;4.67;4.67;;;;;;;;5073490;27;45874;-69
2022/09/29 09:23:26;;;;;;;;;5.67;5.67;;;;;;;;5085984;27;45799;-67
2022/09/29 09:25:53;;;;;;;;;6.00;6.00;;;;;;;;5085137;27;45630;-68
2022/09/29 09:28:19;;;;;;;;;8.00;8.00;;;;;;;;5087023;27;45816;-69
2022/09/29 09:30:49;;;;;;;;;7.00;7.00;;;;;;;;5085276;27;45597;-70
2022/09/29 09:33:21;;;;;;;;;10.33;6.33;;;;;;;;5093658;27;45683;-69
2022/09/29 09:35:59;;;;;;;;;6.67;6.67;;;;;;;;5089161;27;45783;-70
2022/09/29 09:38:27;;;;;;;;;5.00;5.00;;;;;;;;5067477;28;45654;-70
2022/09/29 09:40:54;;;;;;;;;7.33;6.33;;;;;;;;5087522;27;45792;-70
2022/09/29 09:43:51;;;;;;;;;6.00;6.00;;;;;;;;5082944;27;46641;-70
2022/09/29 09:46:17;;;;;;;;;5.00;5.00;;;;;;;;5045731;27;45573;-68
2022/09/29 09:48:48;;;;;;;;;7.33;5.00;;;;;;;;5095339;27;45401;-68
2022/09/29 09:51:22;;;;;;;;;5.00;5.00;;;;;;;;5094624;27;45734;-69
2022/09/29 09:53:49;;;;;;;;;6.33;4.67;;;;;;;;5095754;27;46197;-71
2022/09/29 09:56:34;;;;;;;;;5.00;5.00;;;;;;;;5073151;27;45522;-71
2022/09/29 09:59:11;;;;;;;;;6.00;6.00;;;;;;;;5101311;27;45895;-72
2022/09/29 10:01:36;;;;;;;;;4.67;4.67;;;;;;;;5078405;27;45816;-72
2022/09/29 10:04:02;;;;;;;;;3.00;3.00;;;;;;;;5077290;27;45931;-69
2022/09/29 10:06:28;;;;;;;;;6.00;5.00;;;;;;;;5082849;27;45501;-73
2022/09/29 10:08:53;;;;;;;;;5.00;3.67;;;;;;;;5062129;27;45806;-74
2022/09/29 10:11:21;;;;;;;;;7.00;7.00;;;;;;;;5084207;27;45679;-71
2022/09/29 10:13:47;;;;;;;;;7.00;6.00;;;;;;;;5090107;27;46049;-73
2022/09/29 10:16:15;;;;;;;;;5.00;5.00;;;;;;;;5082579;27;45713;-73
2022/09/29 10:18:42;;;;;;;;;7.33;6.00;;;;;;;;5065926;27;45473;-74
2022/09/29 10:21:28;;;;;;;;;5.67;5.00;;;;;;;;5082502;27;45803;-73
2022/09/29 10:23:56;;;;;;;;;6.00;6.00;;;;;;;;5085072;27;45833;-72
2022/09/29 10:26:32;;;;;;;;;6.00;6.00;;;;;;;;5085134;27;45546;-74
2022/09/29 10:29:03;;;;;;;;;5.00;5.00;;;;;;;;5079249;27;46025;-75
2022/09/29 10:31:29;;;;;;;;;6.00;5.00;;;;;;;;5069779;27;45908;-73
2022/09/29 10:33:59;;;;;;;;;5.00;3.00;;;;;;;;5068085;27;47181;-74
2022/09/29 10:36:30;;;;;;;;;5.00;3.67;;;;;;;;5080682;27;45729;-75
2022/09/29 10:38:55;;;;;;;;;4.00;3.00;;;;;;;;5086215;27;45888;-74
2022/09/29 10:41:21;;;;;;;;;2.00;2.00;;;;;;;;5082458;27;45952;-74
2022/09/29 10:43:48;;;;;;;;;14.33;11.33;;;;;;;;5086653;27;46086;-72
2022/09/29 10:46:28;;;;;;;;;10.67;7.33;;;;;;;;5083679;27;45491;-70
2022/09/29 10:49:19;;;;;;;;;2.67;2.67;;;;;;;;5096376;27;45394;-74
2022/09/29 10:51:48;;;;;;;;;5.33;4.00;;;;;;;;5063933;27;46026;-74
2022/09/29 10:54:14;;;;;;;;;10.00;9.00;;;;;;;;5069165;27;46392;-75
2022/09/29 10:56:44;;;;;;;;;17.00;14.67;;;;;;;;5092246;27;45838;-75
2022/09/29 10:59:10;;;;;;;;;14.00;13.00;;;;;;;;5082140;27;45543;-75
2022/09/29 11:01:44;;;;;;;;;12.33;9.00;;;;;;;;5062506;27;46156;-72
2022/09/29 11:04:16;;;;;;;;;18.00;13.33;;;;;;;;5073425;27;46188;-73
2022/09/29 11:06:41;;;;;;;;;15.33;14.00;;;;;;;;5072202;27;45388;-74
2022/09/29 11:09:12;;;;;;;;;11.00;11.00;;;;;;;;5075334;27;46008;-74
2022/09/29 11:11:46;;;;;;;;;15.67;10.67;;;;;;;;5076042;27;45759;-71
2022/09/29 11:14:23;;;;;;;;;11.33;8.67;;;;;;;;5073898;27;46618;-73
2022/09/29 11:16:54;;;;;;;;;7.00;7.00;;;;;;;;5080161;27;45539;-73
2022/09/29 11:19:19;;;;;;;;;8.67;6.67;;;;;;;;5093801;27;45647;-74
2022/09/29 11:21:44;;;;;;;;;9.33;9.00;;;;;;;;5080678;27;45343;-73
2022/09/29 11:24:28;;;;;;;;;9.00;9.00;;;;;;;;5083359;27;45955;-74
2022/09/29 11:26:57;;;;;;;;;10.33;9.33;;;;;;;;5074956;27;45822;-71
2022/09/29 11:29:22;;;;;;;;;11.00;9.00;;;;;;;;5091043;27;45893;-73
2022/09/29 11:32:07;;;;;;;;;7.33;7.33;;;;;;;;5085604;27;45374;-72
2022/09/29 11:34:42;;;;;;;;;11.67;10.33;;;;;;;;5068759;27;47358;-73
2022/09/29 11:37:10;;;;;;;;;12.00;10.67;;;;;;;;5074027;27;45473;-73
2022/09/29 11:39:36;;;;;;;;;9.67;9.00;;;;;;;;5076025;27;45748;-73
2022/09/29 11:42:01;;;;;;;;;9.00;7.33;;;;;;;;5090127;27;45760;-74
2022/09/29 11:44:51;;;;;;;;;14.00;11.00;;;;;;;;5076099;27;45342;-72
2022/09/29 11:47:19;;;;;;;;;16.00;16.00;;;;;;;;5057544;27;45809;-74
2022/09/29 11:50:14;;;;;;;;;13.00;11.33;;;;;;;;5083412;27;45913;-72
2022/09/29 11:52:58;;;;;;;;;6.00;5.67;;;;;;;;5056525;27;45053;-74
2022/09/29 11:55:36;;;;;;;;;12.67;12.00;;;;;;;;5080118;27;47075;-74
2022/09/29 11:58:15;;;;;;;;;16.00;9.67;;;;;;;;5085140;27;45395;-72
2022/09/29 12:00:43;;;;;;;;;16.67;14.67;;;;;;;;5086462;27;45978;-73
2022/09/29 12:03:22;;;;;;;;;12.67;12.33;;;;;;;;5090035;27;46219;-72
2022/09/29 12:06:07;;;;;;;;;30.33;21.67;;;;;;;;5075347;27;45671;-72
2022/09/29 12:08:55;;;;;;;;;12.00;12.00;;;;;;;;5093118;27;45694;-72
2022/09/29 12:11:36;;;;;;;;;11.33;10.00;;;;;;;;5085985;27;45455;-72
2022/09/29 12:14:07;;;;;;;;;18.00;14.67;;;;;;;;5086836;27;46040;-72
2022/09/29 12:16:35;;;;;;;;;15.67;15.33;;;;;;;;5097143;27;46590;-73
2022/09/29 12:19:03;;;;;;;;;18.33;15.67;;;;;;;;5087144;27;45637;-75
2022/09/29 12:21:28;;;;;;;;;11.00;10.33;;;;;;;;5075146;27;45699;-72
2022/09/29 12:23:56;;;;;;;;;11.00;10.33;;;;;;;;5083001;27;45549;-72
2022/09/29 12:26:23;;;;;;;;;10.00;9.00;;;;;;;;5087798;27;46008;-72
2022/09/29 12:28:57;;;;;;;;;6.67;6.67;;;;;;;;5093184;27;45460;-73
2022/09/29 12:31:29;;;;;;;;;6.00;6.00;;;;;;;;5099549;27;45765;-73
2022/09/29 12:34:09;;;;;;;;;7.67;7.67;;;;;;;;5089920;27;45310;-74
2022/09/29 12:36:44;;;;;;;;;9.67;7.67;;;;;;;;5090912;27;46328;-72
2022/09/29 12:39:25;;;;;;;;;6.67;5.67;;;;;;;;5079003;27;45447;-72
2022/09/29 12:41:53;;;;;;;;;3.67;3.67;;;;;;;;5086619;27;45699;-72
2022/09/29 12:44:29;;;;;;;;;1.67;1.67;;;;;;;;5103974;27;45911;-71
2022/09/29 12:47:03;;;;;;;;;3.33;3.33;;;;;;;;5084798;27;46359;-72
2022/09/29 12:49:47;;;;;;;;;3.00;3.00;;;;;;;;5100363;27;45961;-73
2022/09/29 12:52:19;;;;;;;;;5.67;3.67;;;;;;;;5087030;27;45810;-73
2022/09/29 12:54:47;;;;;;;;;2.00;2.00;;;;;;;;5099555;27;45698;-72
2022/09/29 12:57:14;;;;;;;;;6.00;4.00;;;;;;;;5096446;27;45773;-72
2022/09/29 12:59:39;;;;;;;;;5.00;5.00;;;;;;;;5080931;27;45452;-72
2022/09/29 13:02:26;;;;;;;;;2.67;2.67;;;;;;;;5111526;27;45297;-72
2022/09/29 13:05:07;;;;;;;;;5.33;4.33;;;;;;;;5097770;27;45543;-74
2022/09/29 13:07:57;;;;;;;;;5.00;5.00;;;;;;;;5092539;27;45863;-73
2022/09/29 13:10:41;;;;;;;;;4.00;4.00;;;;;;;;5075063;27;45445;-73
2022/09/29 13:13:25;;;;;;;;;7.67;5.67;;;;;;;;5083885;27;45633;-73
2022/09/29 13:15:56;;;;;;;;;7.67;7.33;;;;;;;;5081098;27;45543;-74
2022/09/29 13:18:33;;;;;;;;;7.33;5.00;;;;;;;;5078441;27;45778;-73
2022/09/29 13:21:18;;;;;;;;;4.00;4.00;;;;;;;;5066973;27;45640;-73
2022/09/29 13:23:50;;;;;;;;;6.33;6.33;;;;;;;;5078451;27;45512;-73
2022/09/29 13:26:30;;;;;;;;;9.00;6.67;;;;;;;;5087082;27;45834;-75
2022/09/29 13:28:58;;;;;;;;;9.00;5.67;;;;;;;;5099024;27;45582;-73
2022/09/29 13:31:28;;;;;;;;;7.00;7.00;;;;;;;;5080195;27;45784;-72
2022/09/29 13:33:55;;;;;;;;;8.33;6.00;;;;;;;;5094246;27;45455;-72
2022/09/29 13:36:22;;;;;;;;;7.00;7.00;;;;;;;;5092381;27;45443;-74
2022/09/29 13:38:52;;;;;;;;;6.67;6.67;;;;;;;;5073301;27;46602;-73
2022/09/29 13:41:20;;;;;;;;;10.67;7.00;;;;;;;;5091474;27;45364;-74
2022/09/29 13:43:51;;;;;;;;;8.33;6.00;;;;;;;;5082788;27;45743;-75
2022/09/29 13:46:31;;;;;;;;;5.33;5.33;;;;;;;;5097447;27;45695;-71
2022/09/29 13:49:10;;;;;;;;;8.00;8.00;;;;;;;;5078945;27;45985;-72
2022/09/29 13:51:54;;;;;;;;;8.33;7.67;;;;;;;;5088468;27;45345;-72
2022/09/29 13:54:21;;;;;;;;;7.00;7.00;;;;;;;;5087800;27;45665;-72
2022/09/29 13:56:47;;;;;;;;;8.67;7.67;;;;;;;;5079828;27;45859;-72
2022/09/29 13:59:14;;;;;;;;;6.67;6.67;;;;;;;;5074274;27;45438;-72
2022/09/29 14:01:40;;;;;;;;;7.67;6.00;;;;;;;;5086309;27;45524;-71
2022/09/29 14:04:23;;;;;;;;;8.33;6.00;;;;;;;;5089837;27;45607;-73
2022/09/29 14:06:49;;;;;;;;;4.33;4.00;;;;;;;;5089407;27;45780;-73
2022/09/29 14:09:16;;;;;;;;;3.00;3.00;;;;;;;;5085292;27;46131;-73
2022/09/29 14:11:51;;;;;;;;;5.67;4.67;;;;;;;;5083413;27;45667;-72
2022/09/29 14:14:23;;;;;;;;;6.00;6.00;;;;;;;;5088187;27;45733;-74
2022/09/29 14:16:49;;;;;;;;;6.00;6.00;;;;;;;;5079076;27;46386;-74
2022/09/29 14:19:33;;;;;;;;;8.67;8.67;;;;;;;;5085419;27;45498;-74
2022/09/29 14:21:59;;;;;;;;;8.67;8.33;;;;;;;;5079549;27;45467;-73
2022/09/29 14:24:34;;;;;;;;;10.67;10.67;;;;;;;;5089857;27;45698;-72
2022/09/29 14:27:18;;;;;;;;;6.00;5.67;;;;;;;;5091231;27;45619;-73
2022/09/29 14:29:52;;;;;;;;;3.67;3.67;;;;;;;;5087324;27;45672;-73
2022/09/29 14:32:39;;;;;;;;;3.33;3.00;;;;;;;;5068768;27;45819;-72
2022/09/29 14:35:14;;;;;;;;;1.00;1.00;;;;;;;;5088534;27;45539;-73
2022/09/29 14:37:39;;;;;;;;;2.00;2.00;;;;;;;;5067261;27;47218;-73
2022/09/29 14:43:01;;;;;;;;;3.00;3.00;;;;;;;;5087900;27;45761;-71
2022/09/29 14:53:58;;;;;;;;;3.00;3.00;;;;;;;;5094226;27;45603;-73
2022/09/29 14:56:30;;;;;;;;;4.00;2.00;;;;;;;;5099926;27;45500;-71
2022/09/29 14:59:01;;;;;;;;;4.00;2.00;;;;;;;;5102949;27;45707;-71
2022/09/29 15:01:31;;;;;;;;;2.33;2.33;;;;;;;;5071250;27;47496;-70
2022/09/29 15:04:08;;;;;;;;;2.00;2.00;;;;;;;;5098379;27;45445;-67
2022/09/29 15:06:34;;;;;;;;;2.00;2.00;;;;;;;;5080316;27;45688;-70
2022/09/29 15:08:59;;;;;;;;;1.00;1.00;;;;;;;;5088495;22;45786;-77
2022/09/29 15:11:26;;;;;;;;;2.00;2.00;;;;;;;;5070706;27;46601;-77